Time;durP1;ratioP1;P1;durP2;ratioP2;P2;SDS_P1;SDS_P2;PMS_P1;PMS_P2;Temp;Humidity;BMP_temperature;BMP_pressure;BME280_temperature;BME280_humidity;BME280_pressure;Samples;Min_cycle;Max_cycle;Signal;HPM_P1;HPM_P2
2023/01/27 00:01:26;;;;;;;19.15;9.45;;;;;;;1.21;92.13;99033.19;3140508;28;20064;-68
2023/01/27 00:02:58;;;;;;;17.25;9.00;;;;;;;1.21;92.22;99026.31;3145696;28;20452;-69
2023/01/27 00:04:30;;;;;;;19.05;9.05;;;;;;;1.23;92.19;99039.13;3154914;28;20079;-69
2023/01/27 00:06:05;;;;;;;18.20;8.80;;;;;;;1.24;92.21;99040.81;3157165;28;20114;-69
2023/01/27 00:07:36;;;;;;;18.48;8.77;;;;;;;1.12;92.29;99027.38;3152996;28;20063;-69
2023/01/27 00:09:08;;;;;;;18.60;9.48;;;;;;;1.25;92.01;99050.22;3156806;28;20056;-69
2023/01/27 00:10:40;;;;;;;18.42;8.75;;;;;;;1.25;92.03;99056.19;3157473;28;20058;-69
2023/01/27 00:14:07;;;;;;;17.92;9.18;;;;;;;1.23;91.97;99057.94;3157154;28;20423;-69
2023/01/27 00:15:40;;;;;;;18.88;9.48;;;;;;;1.23;92.05;99059.66;3156775;28;20066;-69
2023/01/27 00:17:11;;;;;;;19.10;9.38;;;;;;;1.26;92.07;99055.31;3156930;28;20056;-69
2023/01/27 00:18:45;;;;;;;21.63;10.10;;;;;;;1.26;91.90;99051.91;3159480;28;20105;-69
2023/01/27 00:24:34;;;;;;;21.17;10.23;;;;;;;1.26;91.87;99045.03;3162279;28;20063;-69
2023/01/27 00:25:57;;;;;;;20.95;9.25;;;;;;;1.30;91.77;99023.59;3156759;28;20072;-69
2023/01/27 00:27:28;;;;;;;20.63;10.18;;;;;;;1.31;91.79;99021.88;3156667;28;20056;-70
2023/01/27 00:29:00;;;;;;;17.88;8.77;;;;;;;1.32;91.67;99018.44;3156824;28;20048;-69
2023/01/27 00:30:32;;;;;;;18.73;9.65;;;;;;;1.33;91.75;99012.41;3156900;28;20184;-69
2023/01/27 00:33:55;;;;;;;17.00;8.55;;;;;;;1.31;91.61;98998.78;3156785;28;20075;-70
2023/01/27 00:35:26;;;;;;;18.40;9.20;;;;;;;1.40;91.47;99011.44;3156690;28;20048;-70
2023/01/27 00:36:58;;;;;;;17.05;8.20;;;;;;;1.41;91.46;99007.13;3156612;28;20051;-70
2023/01/27 00:38:32;;;;;;;17.55;8.18;;;;;;;1.43;91.51;99006.22;3155281;28;20052;-70
2023/01/27 00:40:05;;;;;;;17.85;8.63;;;;;;;1.45;91.44;99008.75;3157028;28;20127;-70
2023/01/27 00:41:36;;;;;;;21.30;10.27;;;;;;;1.45;91.38;99016.44;3156921;28;20106;-70
2023/01/27 00:43:08;;;;;;;20.27;8.68;;;;;;;1.45;91.46;99019.00;3156813;28;20048;-70
2023/01/27 00:45:47;;;;;;;20.80;9.65;;;;;;;1.42;91.31;99012.25;3156922;28;20105;-71
2023/01/27 00:46:32;;;;;;;16.52;8.02;;;;;;;1.39;91.44;99012.31;3157047;28;20139;-70
2023/01/27 00:48:04;;;;;;;19.08;8.80;;;;;;;1.39;91.55;98999.50;3156678;28;20504;-69
2023/01/27 00:49:38;;;;;;;18.05;9.10;;;;;;;1.36;91.59;98997.81;3157671;28;20051;-69
2023/01/27 00:51:09;;;;;;;17.67;9.10;;;;;;;1.39;91.52;99004.63;3158978;28;20049;-69
2023/01/27 00:52:41;;;;;;;23.15;10.05;;;;;;;1.40;91.54;99011.44;3159124;28;20036;-69
2023/01/27 00:54:13;;;;;;;18.35;8.82;;;;;;;1.40;91.56;99016.56;3158971;28;20048;-69
2023/01/27 00:55:46;;;;;;;18.65;9.32;;;;;;;1.43;91.50;99013.09;3158943;28;20127;-69
2023/01/27 00:57:18;;;;;;;15.77;8.67;;;;;;;1.43;91.55;98998.53;3158081;28;20139;-69
2023/01/27 00:58:49;;;;;;;18.63;9.32;;;;;;;1.46;91.50;98997.63;3159156;28;20306;-69
2023/01/27 01:00:21;;;;;;;17.75;9.40;;;;;;;1.45;91.41;98983.97;3158960;28;20052;-70
2023/01/27 01:01:53;;;;;;;16.92;8.45;;;;;;;1.49;91.38;98984.75;3148460;28;20063;-69
2023/01/27 01:03:26;;;;;;;15.48;7.40;;;;;;;1.48;91.21;98976.19;3158685;28;20052;-69
2023/01/27 01:04:59;;;;;;;15.45;8.27;;;;;;;1.49;91.20;98972.75;3150558;28;20444;-69
2023/01/27 01:06:31;;;;;;;;;;;;;;;1.48;91.13;98959.94;3159149;28;20113;-69
2023/01/27 01:08:01;;;;;;;17.60;8.10;;;;;;;1.49;91.13;98952.22;3158772;28;19924;-70
2023/01/27 01:09:33;;;;;;;16.55;8.15;;;;;;;1.51;91.02;98937.66;3159087;28;20100;-70
2023/01/27 01:11:06;;;;;;;19.08;8.52;;;;;;;1.52;90.84;98930.78;3158824;28;20063;-71
2023/01/27 01:12:37;;;;;;;18.30;8.20;;;;;;;1.53;90.93;98929.91;3158717;28;20139;-70
2023/01/27 01:14:09;;;;;;;18.17;9.38;;;;;;;1.52;90.77;98936.75;3158698;28;20052;-68
2023/01/27 01:15:40;;;;;;;19.73;9.35;;;;;;;1.49;91.02;98930.84;3158854;28;20044;-69
2023/01/27 01:17:12;;;;;;;19.30;8.57;;;;;;;1.52;90.83;98934.19;3158740;28;20052;-69
2023/01/27 01:18:44;;;;;;;18.70;9.10;;;;;;;1.53;90.78;98946.13;3161137;28;20070;-69
2023/01/27 01:20:18;;;;;;;17.42;9.45;;;;;;;1.54;90.73;98977.78;3161102;28;20055;-69
2023/01/27 01:21:49;;;;;;;;;;;;;;;1.53;90.77;98996.59;3158910;28;20483;-69
2023/01/27 01:23:21;;;;;;;18.65;8.32;;;;;;;1.50;90.69;99010.34;3158902;28;19924;-69
2023/01/27 01:24:53;;;;;;;18.65;8.63;;;;;;;1.45;90.84;99012.19;3158803;28;20069;-69
2023/01/27 01:26:25;;;;;;;20.02;9.68;;;;;;;1.42;90.94;99004.56;3158606;28;20056;-69
2023/01/27 01:27:57;;;;;;;21.90;9.48;;;;;;;1.41;91.08;99007.97;3158447;28;20052;-69
2023/01/27 01:29:29;;;;;;;21.08;10.40;;;;;;;1.40;91.13;99006.28;3158322;28;20059;-69
2023/01/27 01:31:05;;;;;;;19.08;8.80;;;;;;;1.41;91.05;99009.69;3158404;28;20101;-69
2023/01/27 01:32:37;;;;;;;22.95;9.93;;;;;;;1.41;91.14;99005.41;3158637;28;20048;-70
2023/01/27 01:34:09;;;;;;;19.00;9.23;;;;;;;1.41;91.20;98995.16;3149788;28;20105;-70
2023/01/27 01:35:41;;;;;;;20.75;10.50;;;;;;;1.45;91.17;98998.47;3158497;28;20081;-70
2023/01/27 01:37:13;;;;;;;16.95;9.10;;;;;;;1.46;91.16;98995.91;3157733;28;20067;-70
2023/01/27 01:38:45;;;;;;;18.77;8.90;;;;;;;1.46;91.14;98977.94;3156646;28;20131;-70
2023/01/27 01:40:18;;;;;;;19.27;8.35;;;;;;;1.44;90.99;98961.72;3158387;28;20060;-69
2023/01/27 01:41:49;;;;;;;17.02;8.95;;;;;;;1.51;90.96;98973.56;3158233;28;20040;-70
2023/01/27 01:43:21;;;;;;;22.45;9.23;;;;;;;1.51;90.97;98959.88;3158287;28;20189;-70
2023/01/27 01:45:38;;;;;;;19.98;9.50;;;;;;;1.54;90.84;98970.94;3158460;28;20060;-70
2023/01/27 01:47:15;;;;;;;19.48;8.70;;;;;;;1.54;90.91;98973.50;3137488;28;20055;-70
2023/01/27 01:48:52;;;;;;;15.60;8.18;;;;;;;1.53;91.05;98966.66;3158267;28;20051;-70
2023/01/27 01:50:22;;;;;;;16.77;7.53;;;;;;;1.54;90.71;98965.81;3158206;28;20056;-70
2023/01/27 01:51:58;;;;;;;15.90;7.55;;;;;;;1.55;90.79;98953.81;3158502;28;20435;-69
2023/01/27 01:53:35;;;;;;;16.70;7.88;;;;;;;1.54;90.79;98958.09;3157981;28;20063;-69
2023/01/27 01:55:08;;;;;;;16.55;7.82;;;;;;;1.56;90.79;98942.66;3145620;28;20049;-70
2023/01/27 01:56:45;;;;;;;17.98;7.75;;;;;;;1.56;90.76;98938.38;3157989;28;20139;-69
2023/01/27 01:58:19;;;;;;;17.00;7.63;;;;;;;1.56;90.81;98940.09;3157880;28;20148;-69
2023/01/27 01:59:58;;;;;;;16.58;8.00;;;;;;;1.55;90.79;98943.53;3158103;28;20044;-70
2023/01/27 02:01:30;;;;;;;15.60;7.60;;;;;;;1.54;90.73;98932.44;3150337;28;20514;-70
2023/01/27 02:03:03;;;;;;;14.35;7.20;;;;;;;1.54;90.72;98939.31;3156888;28;20048;-70
2023/01/27 02:04:40;;;;;;;18.52;8.20;;;;;;;1.54;90.71;98947.00;3157685;28;20044;-70
2023/01/27 02:06:12;;;;;;;15.15;7.78;;;;;;;1.53;90.84;98948.69;3158014;28;20063;-70
2023/01/27 02:07:51;;;;;;;22.27;8.90;;;;;;;1.50;90.92;98951.34;3157854;28;20045;-70
2023/01/27 02:09:23;;;;;;;19.73;8.55;;;;;;;1.47;91.06;98946.28;3158398;28;20355;-70
2023/01/27 02:10:56;;;;;;;19.08;8.40;;;;;;;1.44;91.17;98938.63;3158026;28;20421;-69
2023/01/27 02:12:27;;;;;;;15.40;6.95;;;;;;;1.46;91.19;98929.19;3157895;28;20080;-70
2023/01/27 02:14:01;;;;;;;20.40;9.07;;;;;;;1.47;91.18;98922.34;3158019;28;20048;-70
2023/01/27 02:15:32;;;;;;;18.88;8.32;;;;;;;1.50;91.21;98915.41;3158023;28;20080;-70
2023/01/27 02:17:05;;;;;;;17.88;9.25;;;;;;;1.50;91.21;98912.84;3157888;28;20135;-70
2023/01/27 02:18:38;;;;;;;14.88;7.35;;;;;;;1.52;91.11;98915.38;3159124;28;20055;-70
2023/01/27 02:20:18;;;;;;;15.95;8.57;;;;;;;1.51;91.10;98916.25;3164906;28;20122;-70
2023/01/27 02:21:52;;;;;;;18.02;8.45;;;;;;;1.49;91.01;98906.03;3158052;28;20074;-70
2023/01/27 02:23:43;;;;;;;17.67;8.57;;;;;;;1.52;91.02;98900.00;3157762;28;20048;-69
2023/01/27 02:25:24;;;;;;;16.63;8.00;;;;;;;1.53;90.89;98896.53;3157832;28;20055;-70
2023/01/27 02:26:57;;;;;;;17.80;8.48;;;;;;;1.51;90.96;98894.03;3157776;28;20047;-71
2023/01/27 02:28:29;;;;;;;18.20;8.98;;;;;;;1.52;90.95;98887.16;3157776;28;20105;-70
2023/01/27 02:30:01;;;;;;;16.73;8.43;;;;;;;1.54;91.03;98872.59;3157964;28;20670;-70
2023/01/27 02:31:33;;;;;;;18.05;8.50;;;;;;;1.50;90.73;98871.78;3157922;28;20310;-70
2023/01/27 02:33:08;;;;;;;19.20;9.27;;;;;;;1.56;90.85;98876.78;3157157;28;20075;-70
2023/01/27 02:34:40;;;;;;;19.88;8.88;;;;;;;1.57;90.82;98882.78;3157721;28;20421;-70
2023/01/27 02:36:14;;;;;;;18.17;8.82;;;;;;;1.57;90.74;98885.34;3157888;28;20055;-70
2023/01/27 02:37:48;;;;;;;17.55;9.25;;;;;;;1.55;90.74;98889.66;3155928;28;20052;-70
2023/01/27 02:39:24;;;;;;;18.48;9.07;;;;;;;1.55;90.83;98895.63;3157799;28;20052;-70
2023/01/27 02:40:59;;;;;;;18.17;9.02;;;;;;;1.57;90.91;98899.00;3157852;28;20109;-70
2023/01/27 02:42:32;;;;;;;15.90;8.05;;;;;;;1.58;90.86;98887.03;3157744;28;20055;-70
2023/01/27 02:44:03;;;;;;;15.68;8.50;;;;;;;1.61;90.80;98881.81;3157740;28;20681;-70
2023/01/27 02:45:35;;;;;;;18.88;9.13;;;;;;;1.64;90.71;98875.78;3157662;28;20048;-70
2023/01/27 02:47:07;;;;;;;19.25;9.18;;;;;;;1.66;90.60;98886.84;3157678;28;20048;-70
2023/01/27 02:48:38;;;;;;;18.17;8.60;;;;;;;1.68;90.57;98895.34;3145664;28;20056;-70
2023/01/27 02:50:11;;;;;;;17.90;8.30;;;;;;;1.69;90.42;98899.63;3157322;28;20048;-70
2023/01/27 02:51:43;;;;;;;18.00;8.52;;;;;;;1.69;90.45;98887.63;3157588;28;20090;-70
2023/01/27 02:53:14;;;;;;;19.50;7.97;;;;;;;1.71;90.40;98883.28;3157688;28;20048;-70
2023/01/27 02:54:45;;;;;;;16.50;7.38;;;;;;;1.73;90.40;98878.13;3157432;28;20105;-69
2023/01/27 02:56:17;;;;;;;16.88;8.05;;;;;;;1.72;90.28;98884.97;3157760;28;20067;-70
2023/01/27 02:57:51;;;;;;;17.13;8.35;;;;;;;1.74;90.25;98885.75;3157339;28;20044;-71
2023/01/27 02:59:22;;;;;;;15.63;7.43;;;;;;;1.76;90.21;98888.31;3157428;28;20482;-70
2023/01/27 03:00:55;;;;;;;17.48;8.45;;;;;;;1.71;90.13;98885.84;3154537;28;20105;-70
2023/01/27 03:02:29;;;;;;;18.38;8.68;;;;;;;1.78;90.11;98878.84;3155154;28;20109;-70
2023/01/27 03:04:01;;;;;;;19.42;9.02;;;;;;;1.79;90.30;98878.81;3157529;28;20050;-70
2023/01/27 03:05:33;;;;;;;18.48;8.90;;;;;;;1.81;89.97;98877.06;3157295;28;20440;-70
2023/01/27 03:07:05;;;;;;;19.80;8.75;;;;;;;1.75;89.80;98871.22;3157281;28;20048;-70
2023/01/27 03:08:37;;;;;;;18.33;8.15;;;;;;;1.82;89.81;98865.06;3157485;28;20055;-70
2023/01/27 03:10:10;;;;;;;14.77;7.10;;;;;;;1.81;89.64;98858.25;3157378;28;20059;-70
2023/01/27 03:13:32;;;;;;;14.70;7.40;;;;;;;1.76;89.52;98868.59;3157019;28;20135;-70
2023/01/27 03:18:46;;;;;;;18.33;6.85;;;;;;;1.71;89.39;98856.75;3159717;28;20051;-70
2023/01/27 03:20:16;;;;;;;;;;;;;;;1.68;89.17;98854.28;3163968;28;20109;-69
2023/01/27 03:21:49;;;;;;;16.85;7.25;;;;;;;1.66;89.27;98867.16;3157220;28;19969;-70
2023/01/27 03:23:21;;;;;;;18.23;8.35;;;;;;;1.64;89.18;98868.06;3157194;28;20132;-70
2023/01/27 03:24:53;;;;;;;16.35;7.97;;;;;;;1.59;89.02;98866.44;3156758;28;20574;-72
2023/01/27 03:26:25;;;;;;;15.75;6.93;;;;;;;1.61;88.88;98886.09;3157080;28;20444;-69
2023/01/27 03:27:56;;;;;;;16.80;7.95;;;;;;;1.61;88.71;98896.38;3157108;28;20060;-70
2023/01/27 03:31:27;;;;;;;16.88;7.72;;;;;;;1.58;88.72;98892.16;3131595;28;20060;-70
2023/01/27 03:32:59;;;;;;;17.95;8.18;;;;;;;1.57;88.88;98893.88;3156766;28;20040;-70
2023/01/27 03:34:31;;;;;;;16.20;7.72;;;;;;;1.52;88.67;98882.88;3157212;28;20040;-70
2023/01/27 03:47:00;;;;;;;13.85;7.38;;;;;;;1.48;88.53;98873.56;3156969;28;20362;-71
2023/01/27 03:48:31;;;;;;;18.50;8.63;;;;;;;1.49;88.39;98880.38;3145419;28;20052;-71
2023/01/27 03:50:09;;;;;;;16.73;8.05;;;;;;;1.49;88.29;98880.38;3154819;28;20620;-70
2023/01/27 03:51:41;;;;;;;18.15;7.60;;;;;;;1.46;88.10;98877.88;3157090;28;20116;-71
2023/01/27 03:53:13;;;;;;;16.52;8.27;;;;;;;1.44;88.04;98877.06;3156665;28;20574;-68
2023/01/27 03:54:45;;;;;;;17.50;7.82;;;;;;;1.39;87.91;98881.47;3156596;28;20048;-71
2023/01/27 03:56:18;;;;;;;16.48;8.48;;;;;;;1.40;87.95;98890.00;3156794;28;20052;-74
2023/01/27 03:57:49;;;;;;;16.77;7.93;;;;;;;1.39;87.80;98881.47;3156853;28;20059;-75
2023/01/27 03:59:21;;;;;;;16.52;7.95;;;;;;;1.39;87.71;98878.91;3156400;28;20075;-71
2023/01/27 04:00:55;;;;;;;15.35;7.28;;;;;;;1.36;87.63;98872.13;3154687;28;20048;-74
2023/01/27 04:07:55;;;;;;;13.95;6.50;;;;;;;1.35;87.53;98851.63;3157054;28;20040;-70
2023/01/27 04:09:28;;;;;;;16.23;6.57;;;;;;;1.37;87.64;98847.31;3156874;28;20052;-70
2023/01/27 04:12:52;;;;;;;11.73;5.88;;;;;;;1.38;87.65;98853.28;3156729;28;20469;-71
2023/01/27 04:14:25;;;;;;;11.70;6.35;;;;;;;1.40;87.84;98854.94;3156925;28;20048;-70
2023/01/27 04:15:57;;;;;;;11.65;6.28;;;;;;;1.43;87.97;98854.88;3156856;28;20059;-70
2023/01/27 04:17:37;;;;;;;11.57;6.38;;;;;;;1.43;87.92;98848.91;3156643;28;20048;-70
2023/01/27 04:19:11;;;;;;;12.63;6.35;;;;;;;1.38;87.99;98841.28;3162377;28;20527;-70
2023/01/27 04:20:43;;;;;;;14.20;7.20;;;;;;;1.45;88.12;98855.69;3159312;28;20051;-70
2023/01/27 04:22:14;;;;;;;13.57;7.18;;;;;;;1.35;88.42;98837.06;3156843;28;20131;-69
2023/01/27 04:23:46;;;;;;;15.07;7.50;;;;;;;1.46;88.13;98852.22;3156796;28;20052;-69
2023/01/27 04:25:18;;;;;;;18.65;7.32;;;;;;;1.46;88.03;98856.53;3158554;28;20075;-69
2023/01/27 04:26:53;;;;;;;14.82;6.80;;;;;;;1.44;87.92;98850.56;3159227;28;20044;-70
2023/01/27 04:28:24;;;;;;;14.93;7.63;;;;;;;1.41;87.79;98854.06;3159213;28;20052;-70
2023/01/27 04:29:56;;;;;;;15.50;7.10;;;;;;;1.38;87.71;98850.72;3159190;28;20055;-70
2023/01/27 04:31:29;;;;;;;13.85;6.82;;;;;;;1.29;87.69;98833.81;3158922;28;20048;-70
2023/01/27 04:33:03;;;;;;;16.27;8.52;;;;;;;1.33;87.50;98840.53;3159156;28;20610;-70
2023/01/27 04:34:35;;;;;;;14.98;7.55;;;;;;;1.23;87.35;98823.69;3159206;28;20149;-70
2023/01/27 04:36:07;;;;;;;14.68;7.20;;;;;;;1.30;87.31;98835.50;3159228;28;20044;-70
2023/01/27 04:37:38;;;;;;;13.95;7.05;;;;;;;1.30;87.29;98831.22;3158173;28;20544;-70
2023/01/27 04:39:10;;;;;;;15.32;7.15;;;;;;;1.30;87.34;98832.94;3159090;28;20105;-70
2023/01/27 04:40:42;;;;;;;15.75;7.57;;;;;;;1.28;87.32;98827.84;3158843;28;20047;-69
2023/01/27 04:42:14;;;;;;;15.10;7.80;;;;;;;1.30;87.27;98833.78;3158296;28;20101;-69
2023/01/27 04:43:45;;;;;;;14.60;6.93;;;;;;;1.32;87.41;98838.88;3159445;28;20040;-68
2023/01/27 04:45:17;;;;;;;15.20;7.57;;;;;;;1.32;87.36;98852.53;3158721;28;20136;-68
2023/01/27 04:46:50;;;;;;;15.60;7.32;;;;;;;1.33;87.30;98840.53;3158878;28;20101;-69
2023/01/27 04:48:22;;;;;;;15.02;8.10;;;;;;;1.32;87.56;98844.00;3158880;28;20449;-69
2023/01/27 04:49:54;;;;;;;15.13;7.47;;;;;;;1.34;87.51;98848.22;3158871;28;20044;-69
2023/01/27 04:51:27;;;;;;;17.92;7.95;;;;;;;1.36;87.68;98840.47;3158680;28;20125;-69
2023/01/27 04:52:59;;;;;;;15.75;7.82;;;;;;;1.37;87.77;98839.63;3158851;28;20147;-69
2023/01/27 04:54:31;;;;;;;17.88;8.27;;;;;;;1.36;87.62;98838.78;3158878;28;20389;-69
2023/01/27 04:56:04;;;;;;;17.38;8.13;;;;;;;1.35;87.56;98837.06;3159128;28;20466;-70
2023/01/27 04:57:36;;;;;;;19.83;9.65;;;;;;;1.35;87.53;98838.81;3159062;28;20527;-71
2023/01/27 04:59:11;;;;;;;22.50;9.27;;;;;;;1.34;87.51;98832.00;3158850;28;20055;-70
2023/01/27 05:00:42;;;;;;;19.02;9.27;;;;;;;1.35;87.63;98836.25;3157370;28;20119;-66
2023/01/27 05:02:16;;;;;;;16.17;8.75;;;;;;;1.35;87.51;98834.50;3150400;28;20052;-68
2023/01/27 05:03:47;;;;;;;20.45;9.50;;;;;;;1.36;87.51;98837.91;3158597;28;20127;-68
2023/01/27 05:05:19;;;;;;;21.60;10.48;;;;;;;1.33;87.54;98830.28;3155819;28;20390;-71
2023/01/27 05:06:51;;;;;;;20.40;9.95;;;;;;;1.38;87.51;98835.31;3148532;28;20053;-69
2023/01/27 05:08:22;;;;;;;18.83;9.35;;;;;;;1.39;87.28;98840.44;3158877;28;20063;-73
2023/01/27 05:09:54;;;;;;;18.63;8.65;;;;;;;1.40;87.64;98847.25;3158725;28;20052;-73
2023/01/27 05:11:26;;;;;;;18.55;9.27;;;;;;;1.40;87.47;98851.53;3158569;28;20205;-71
2023/01/27 05:12:57;;;;;;;21.67;9.38;;;;;;;1.41;87.56;98856.63;3158582;28;20052;-70
2023/01/27 05:14:29;;;;;;;18.77;8.45;;;;;;;1.40;87.56;98851.53;3159058;28;20048;-68
2023/01/27 05:16:08;;;;;;;146.18;66.97;;;;;;;1.44;87.64;98860.84;3159102;28;20711;-71
2023/01/27 05:17:41;;;;;;;341.10;149.52;;;;;;;1.44;87.69;98861.66;3151811;28;20077;-71
2023/01/27 05:19:13;;;;;;;;;;;;;;;1.44;87.61;98874.50;3161397;28;20060;-70
2023/01/27 05:20:44;;;;;;;56.30;25.25;;;;;;;1.45;87.76;98878.78;3158801;28;19920;-73
2023/01/27 05:22:15;;;;;;;22.95;11.10;;;;;;;1.48;87.63;98873.56;3158824;28;20677;-75
2023/01/27 05:23:47;;;;;;;19.77;10.25;;;;;;;1.51;87.59;98877.75;3158651;28;20048;-73
2023/01/27 05:25:19;;;;;;;20.80;10.25;;;;;;;1.54;87.59;98878.56;3158776;28;20052;-74
2023/01/27 05:26:52;;;;;;;19.60;9.65;;;;;;;1.55;87.69;98876.81;3158567;28;20495;-73
2023/01/27 05:28:23;;;;;;;18.98;9.35;;;;;;;1.59;87.98;98876.69;3158113;28;20464;-73
2023/01/27 05:29:55;;;;;;;21.58;10.10;;;;;;;1.63;88.06;98869.81;3158263;28;20044;-71
2023/01/27 05:31:30;;;;;;;23.60;10.73;;;;;;;1.67;88.15;98868.00;3157912;28;20517;-73
2023/01/27 05:33:02;;;;;;;20.75;10.10;;;;;;;1.72;88.18;98868.75;3158502;28;20048;-73
2023/01/27 05:34:34;;;;;;;25.08;10.55;;;;;;;1.73;88.37;98865.28;3158592;28;20591;-72
2023/01/27 05:36:08;;;;;;;21.13;10.23;;;;;;;1.76;88.45;98867.78;3157788;28;20494;-70
2023/01/27 05:37:40;;;;;;;19.88;9.80;;;;;;;1.77;88.41;98872.00;3157055;28;20048;-72
2023/01/27 05:39:12;;;;;;;18.98;9.63;;;;;;;1.79;88.32;98873.66;3158342;28;20133;-71
2023/01/27 05:40:42;;;;;;;23.42;10.57;;;;;;;1.75;88.42;98874.63;3158264;28;20055;-71
2023/01/27 05:42:14;;;;;;;17.75;9.23;;;;;;;1.78;88.38;98878.84;3152301;28;20056;-73
2023/01/27 05:43:50;;;;;;;20.90;10.63;;;;;;;1.81;88.45;98882.19;3154058;28;20063;-71
2023/01/27 05:45:22;;;;;;;21.13;9.85;;;;;;;1.82;88.55;98880.47;3145575;28;20594;-72
2023/01/27 05:46:54;;;;;;;20.70;9.40;;;;;;;1.85;88.53;98876.97;3148741;28;20114;-72
2023/01/27 05:48:26;;;;;;;17.15;8.88;;;;;;;1.86;88.47;98874.34;3158075;28;20070;-71
2023/01/27 05:49:58;;;;;;;16.17;7.85;;;;;;;1.88;88.53;98876.91;3158170;28;20439;-73
2023/01/27 05:51:32;;;;;;;13.18;6.50;;;;;;;1.89;88.63;98876.00;3158695;28;20075;-74
2023/01/27 05:53:04;;;;;;;18.90;8.50;;;;;;;1.91;88.58;98881.97;3145314;28;20052;-73
2023/01/27 05:54:35;;;;;;;16.40;7.80;;;;;;;1.93;88.73;98880.19;3146696;28;20481;-74
2023/01/27 05:56:10;;;;;;;16.42;8.68;;;;;;;1.95;88.80;98871.59;3157080;28;20440;-72
2023/01/27 05:57:41;;;;;;;15.57;7.13;;;;;;;1.97;88.71;98879.22;3156974;28;20060;-74
2023/01/27 05:59:13;;;;;;;20.70;9.00;;;;;;;1.98;88.85;98876.63;3144600;28;20060;-72
2023/01/27 06:00:45;;;;;;;15.48;8.48;;;;;;;1.99;88.86;98867.22;3155714;28;20123;-72
2023/01/27 06:02:17;;;;;;;18.85;9.35;;;;;;;2.00;88.87;98869.72;3155903;28;20452;-72
2023/01/27 06:03:50;;;;;;;20.90;10.18;;;;;;;1.98;89.03;98865.50;3157009;28;20040;-72
2023/01/27 06:05:22;;;;;;;17.92;8.77;;;;;;;1.96;89.08;98867.28;3157261;28;20070;-73
2023/01/27 06:06:54;;;;;;;17.88;9.95;;;;;;;1.97;89.19;98861.25;3157169;28;20597;-73
2023/01/27 06:08:26;;;;;;;17.58;10.60;;;;;;;1.99;89.18;98859.50;3157135;28;20047;-73
2023/01/27 06:09:58;;;;;;;19.63;9.05;;;;;;;2.03;89.21;98867.06;3154481;28;20052;-73
2023/01/27 06:11:30;;;;;;;18.70;8.82;;;;;;;2.05;89.23;98857.63;3156743;28;20048;-73
2023/01/27 06:13:01;;;;;;;16.45;8.15;;;;;;;2.05;89.24;98849.91;3158346;28;20079;-73
2023/01/27 06:14:35;;;;;;;13.98;7.40;;;;;;;2.10;89.30;98851.50;3158451;28;20055;-75
2023/01/27 06:16:09;;;;;;;14.15;7.13;;;;;;;2.12;89.20;98847.19;3158047;28;20048;-74
2023/01/27 06:17:41;;;;;;;11.18;6.47;;;;;;;2.11;89.24;98848.06;3158151;28;20051;-74
2023/01/27 06:19:15;;;;;;;13.50;6.85;;;;;;;2.13;89.34;98849.72;3157948;28;20444;-76
2023/01/27 06:20:47;;;;;;;13.25;6.75;;;;;;;2.14;89.44;98853.13;3157924;28;20048;-75
2023/01/27 06:22:18;;;;;;;21.13;9.43;;;;;;;2.13;89.19;98854.00;3157915;28;20373;-75
2023/01/27 06:23:52;;;;;;;26.30;11.30;;;;;;;2.16;89.23;98861.63;3154088;28;20158;-71
2023/01/27 06:25:24;;;;;;;28.02;11.57;;;;;;;2.15;89.32;98867.66;3150423;28;20115;-72
2023/01/27 06:26:55;;;;;;;35.58;15.90;;;;;;;2.16;89.31;98867.63;3147276;28;20098;-74
2023/01/27 06:28:27;;;;;;;30.52;13.95;;;;;;;2.17;89.30;98876.16;3157498;28;20550;-73
2023/01/27 06:29:59;;;;;;;21.88;10.82;;;;;;;2.19;89.30;98874.38;3157622;28;20044;-74
2023/01/27 06:31:31;;;;;;;16.45;9.02;;;;;;;2.19;89.38;98876.94;3157862;28;20528;-74
2023/01/27 06:33:02;;;;;;;20.25;9.27;;;;;;;2.18;89.47;98877.84;3157817;28;20051;-70
2023/01/27 06:34:35;;;;;;;16.65;8.05;;;;;;;2.18;89.38;98877.84;3157148;28;20048;-72
2023/01/27 06:36:10;;;;;;;21.25;9.23;;;;;;;2.20;89.63;98878.66;3157861;28;20055;-72
2023/01/27 06:37:42;;;;;;;24.80;11.32;;;;;;;2.24;89.44;98880.25;3153651;28;20048;-72
2023/01/27 06:39:15;;;;;;;30.08;14.60;;;;;;;2.27;89.65;98870.72;3153228;28;20457;-71
2023/01/27 06:40:47;;;;;;;23.08;11.38;;;;;;;2.31;89.51;98871.50;3157956;28;20078;-73
2023/01/27 06:42:19;;;;;;;25.05;11.48;;;;;;;2.34;89.53;98878.28;3157930;28;20125;-71
2023/01/27 06:43:50;;;;;;;25.15;11.85;;;;;;;2.38;89.45;98878.16;3157825;28;20044;-70
2023/01/27 06:45:22;;;;;;;21.15;10.60;;;;;;;2.30;89.35;98856.97;3157678;28;20453;-70
2023/01/27 06:46:54;;;;;;;19.15;10.38;;;;;;;2.45;89.39;98871.13;3156957;28;20053;-72
2023/01/27 06:48:27;;;;;;;25.20;11.30;;;;;;;2.44;89.29;98875.44;3157782;28;20059;-72
2023/01/27 06:50:00;;;;;;;23.88;11.18;;;;;;;2.46;89.29;98872.81;3157826;28;20051;-75
2023/01/27 06:51:32;;;;;;;27.60;11.75;;;;;;;2.46;89.25;98871.09;3157711;28;20075;-73
2023/01/27 06:53:05;;;;;;;25.67;11.10;;;;;;;2.47;89.32;98859.09;3157496;28;20051;-69
2023/01/27 06:54:37;;;;;;;;;;;;;;;2.46;89.31;98863.38;3158302;28;20052;-69
2023/01/27 06:56:09;;;;;;;20.55;9.27;;;;;;;2.46;89.27;98867.69;3146364;28;20345;-73
2023/01/27 06:57:41;;;;;;;20.33;10.13;;;;;;;2.47;89.22;98859.09;3152643;28;20060;-72
2023/01/27 06:59:13;;;;;;;21.75;10.32;;;;;;;2.48;89.31;98860.75;3157608;28;20078;-71
2023/01/27 07:00:45;;;;;;;23.95;12.00;;;;;;;2.49;89.18;98860.72;3156340;28;20052;-74
2023/01/27 07:02:19;;;;;;;20.85;11.20;;;;;;;2.47;89.19;98859.09;3150817;28;20082;-74
2023/01/27 07:03:51;;;;;;;30.13;12.80;;;;;;;2.49;89.21;98863.31;3152809;28;20102;-74
2023/01/27 07:05:24;;;;;;;23.60;11.70;;;;;;;2.53;89.23;98863.22;3149931;28;20071;-71
2023/01/27 07:06:56;;;;;;;23.88;11.45;;;;;;;2.49;89.01;98855.59;3157675;28;20059;-71
2023/01/27 07:08:28;;;;;;;22.73;11.55;;;;;;;2.56;89.14;98863.97;3157644;28;20047;-70
2023/01/27 07:10:00;;;;;;;20.73;11.02;;;;;;;2.60;89.12;98872.44;3157749;28;20068;-73
2023/01/27 07:11:32;;;;;;;23.17;11.00;;;;;;;2.63;89.08;98870.66;3157579;28;20421;-74
2023/01/27 07:13:05;;;;;;;20.50;10.55;;;;;;;2.66;88.95;98872.25;3143163;28;20056;-73
2023/01/27 07:14:40;;;;;;;;;;;;;;;2.66;88.77;98873.13;3150529;28;20048;-74
2023/01/27 07:16:11;;;;;;;18.20;8.88;;;;;;;2.65;88.83;98873.16;3154360;28;19927;-72
2023/01/27 07:17:43;;;;;;;22.05;8.80;;;;;;;2.69;88.82;98877.31;3145001;28;20609;-72
2023/01/27 07:19:16;;;;;;;18.80;9.77;;;;;;;2.70;88.64;98873.88;3156885;28;20052;-72
2023/01/27 07:20:49;;;;;;;22.08;11.88;;;;;;;2.74;88.59;98875.47;3151319;28;20086;-74
2023/01/27 07:22:21;;;;;;;27.70;14.18;;;;;;;2.75;88.26;98874.56;3155696;28;20052;-70
2023/01/27 07:23:53;;;;;;;24.58;12.07;;;;;;;2.79;88.37;98877.91;3157401;28;20060;-69
2023/01/27 07:25:25;;;;;;;25.08;12.52;;;;;;;2.78;88.28;98874.50;3157369;28;20106;-72
2023/01/27 07:26:57;;;;;;;21.20;10.63;;;;;;;2.80;88.21;98883.00;3148391;28;20478;-71
2023/01/27 07:28:29;;;;;;;22.55;11.18;;;;;;;2.80;88.16;98883.00;3152854;28;20048;-72
2023/01/27 07:30:01;;;;;;;24.48;10.93;;;;;;;2.83;88.12;98882.91;3153380;28;20044;-73
2023/01/27 07:31:34;;;;;;;28.75;12.25;;;;;;;2.86;88.17;98884.56;3157392;28;20141;-71
2023/01/27 07:33:06;;;;;;;25.95;11.70;;;;;;;2.88;88.10;98887.94;3157205;28;20071;-72
2023/01/27 07:34:37;;;;;;;26.77;12.18;;;;;;;2.89;87.92;98880.16;3157255;28;20109;-71
2023/01/27 07:36:11;;;;;;;24.58;12.05;;;;;;;2.90;87.93;98876.72;3157135;28;20096;-73
2023/01/27 07:37:42;;;;;;;;;;;;;;;2.88;87.91;98877.66;3157534;28;20044;-73
2023/01/27 07:39:15;;;;;;;31.75;11.45;;;;;;;2.84;88.04;98876.91;3157270;28;19922;-70
2023/01/27 07:40:47;;;;;;;30.13;12.93;;;;;;;2.85;87.93;98881.16;3157407;28;20055;-71
2023/01/27 07:42:18;;;;;;;28.52;12.50;;;;;;;2.85;87.79;98876.00;3156625;28;20048;-71
2023/01/27 07:43:50;;;;;;;32.83;12.77;;;;;;;2.85;87.80;98876.00;3157226;28;20633;-71
2023/01/27 07:45:22;;;;;;;30.95;12.20;;;;;;;2.86;88.00;98867.41;3156913;28;20044;-69
2023/01/27 07:46:54;;;;;;;32.40;12.13;;;;;;;2.90;87.86;98871.59;3156818;28;20106;-71
2023/01/27 07:48:26;;;;;;;29.25;11.73;;;;;;;2.92;87.82;98869.78;3156835;28;20052;-71
2023/01/27 07:49:58;;;;;;;31.23;12.68;;;;;;;2.96;87.75;98862.84;3157027;28;20538;-69
2023/01/27 07:51:31;;;;;;;70.82;33.78;;;;;;;3.00;87.71;98858.47;3156676;28;20079;-72